createdAt,value
2018-05-11T00:02:24.686Z,1.70
2018-05-11T00:04:52.328Z,1.27
2018-05-11T00:07:19.895Z,1.83
2018-05-11T00:09:47.401Z,2.27
2018-05-11T00:12:15.111Z,1.80
2018-05-11T00:14:42.626Z,2.63
2018-05-11T00:17:10.553Z,1.60
2018-05-11T00:19:38.279Z,1.70
2018-05-11T00:22:05.938Z,1.80
2018-05-11T00:24:33.455Z,1.57
2018-05-11T00:27:01.369Z,1.83
2018-05-11T00:29:28.894Z,1.70
2018-05-11T00:31:56.420Z,2.60
2018-05-11T00:34:24.030Z,1.70
2018-05-11T00:36:51.562Z,2.13
2018-05-11T00:39:19.086Z,1.93
2018-05-11T00:41:46.629Z,1.90
2018-05-11T00:44:14.153Z,2.10
2018-05-11T00:46:41.713Z,3.20
2018-05-11T00:49:09.360Z,2.20
2018-05-11T00:51:36.902Z,3.13
2018-05-11T00:54:04.409Z,3.20
2018-05-11T00:56:31.939Z,2.60
2018-05-11T00:58:59.501Z,2.73
2018-05-11T01:01:27.043Z,2.80
2018-05-11T01:03:54.562Z,2.97
2018-05-11T01:06:22.137Z,3.30
2018-05-11T01:08:49.652Z,3.00
2018-05-11T01:11:17.269Z,3.53
2018-05-11T01:13:44.928Z,3.13
2018-05-11T01:16:12.591Z,3.37
2018-05-11T01:18:40.117Z,3.77
2018-05-11T01:21:08.067Z,3.10
2018-05-11T01:23:35.606Z,3.80
2018-05-11T01:26:03.209Z,3.50
2018-05-11T01:28:30.761Z,3.43
2018-05-11T01:30:58.252Z,3.20
2018-05-11T01:33:26.672Z,3.67
2018-05-11T01:35:54.678Z,3.93
2018-05-11T01:38:22.339Z,4.60
2018-05-11T01:40:49.860Z,3.53
2018-05-11T01:43:17.797Z,3.73
2018-05-11T01:45:45.318Z,3.60
2018-05-11T01:48:12.913Z,3.37
2018-05-11T01:50:40.425Z,3.27
2018-05-11T01:53:07.960Z,4.20
2018-05-11T01:55:35.490Z,3.37
2018-05-11T01:58:03.041Z,3.20
2018-05-11T02:00:30.639Z,3.57
2018-05-11T02:02:58.309Z,2.53
2018-05-11T02:05:25.833Z,3.07
2018-05-11T02:07:54.544Z,2.83
2018-05-11T02:10:22.044Z,2.87
2018-05-11T02:12:49.668Z,2.80
2018-05-11T02:15:17.166Z,2.97
2018-05-11T02:17:44.723Z,3.00
2018-05-11T02:20:12.628Z,2.87
2018-05-11T02:22:40.214Z,3.00
2018-05-11T02:25:07.850Z,3.20
2018-05-11T02:27:35.377Z,2.83
2018-05-11T02:30:03.271Z,3.50
2018-05-11T02:32:30.797Z,3.50
2018-05-11T02:34:58.317Z,2.37
2018-05-11T02:37:25.949Z,3.00
2018-05-11T02:39:53.477Z,2.93
2018-05-11T02:42:21.040Z,2.47
2018-05-11T02:44:48.711Z,2.90
2018-05-11T02:47:16.256Z,2.83
2018-05-11T02:49:43.782Z,2.70
2018-05-11T02:52:11.505Z,2.60
2018-05-11T02:54:39.150Z,4.07
2018-05-11T02:57:06.670Z,7.00
2018-05-11T02:59:34.254Z,6.93
2018-05-11T03:02:01.922Z,6.27
2018-05-11T03:04:29.500Z,5.77
2018-05-11T03:06:57.009Z,4.20
2018-05-11T03:09:24.579Z,4.43
2018-05-11T03:11:52.131Z,5.97
2018-05-11T03:14:19.696Z,4.67
2018-05-11T03:16:47.374Z,4.47
2018-05-11T03:19:14.946Z,7.27
2018-05-11T03:21:42.469Z,4.87
2018-05-11T03:24:10.003Z,4.77
2018-05-11T03:26:37.521Z,6.20
2018-05-11T03:29:05.076Z,8.70
2018-05-11T03:31:32.615Z,7.33
2018-05-11T03:34:00.464Z,7.60
2018-05-11T03:36:28.115Z,7.97
2018-05-11T03:38:55.695Z,6.70
2018-05-11T03:41:23.219Z,7.70
2018-05-11T03:43:50.885Z,6.97
2018-05-11T03:46:18.542Z,6.93
2018-05-11T03:48:46.100Z,6.47
2018-05-11T03:51:13.626Z,6.50
2018-05-11T03:53:41.241Z,4.50
2018-05-11T03:56:08.768Z,5.40
2018-05-11T03:58:36.645Z,4.50
2018-05-11T04:01:04.146Z,3.83
2018-05-11T04:03:43.979Z,4.50
2018-05-11T04:06:24.031Z,3.07
2018-05-11T04:08:51.633Z,2.93
2018-05-11T04:11:19.149Z,2.60
2018-05-11T04:13:47.113Z,3.20
2018-05-11T04:16:14.625Z,2.67
2018-05-11T04:18:42.130Z,2.97
2018-05-11T04:21:09.730Z,2.67
2018-05-11T04:23:37.281Z,2.60
2018-05-11T04:26:04.833Z,2.57
2018-05-11T04:28:32.339Z,2.83
2018-05-11T04:30:59.881Z,2.17
2018-05-11T04:33:27.403Z,2.60
2018-05-11T04:35:55.063Z,2.63
2018-05-11T04:38:22.577Z,2.03
2018-05-11T04:40:50.527Z,2.67
2018-05-11T04:43:18.039Z,2.03
2018-05-11T04:45:45.561Z,2.80
2018-05-11T04:48:13.073Z,2.63
2018-05-11T04:50:40.629Z,1.70
2018-05-11T04:53:08.132Z,2.10
2018-05-11T04:55:36.069Z,2.10
2018-05-11T04:58:03.577Z,2.50
2018-05-11T05:00:31.158Z,1.80
2018-05-11T05:02:58.668Z,2.28
2018-05-11T05:05:26.251Z,1.50
2018-05-11T05:07:53.808Z,2.03
2018-05-11T05:10:21.472Z,2.28
2018-05-11T05:12:49.134Z,2.08
2018-05-11T05:15:16.783Z,1.80
2018-05-11T05:17:44.289Z,1.90
2018-05-11T05:20:12.229Z,2.17
2018-05-11T05:22:39.741Z,1.98
2018-05-11T05:25:07.426Z,1.90
2018-05-11T05:27:34.937Z,2.28
2018-05-11T05:30:02.896Z,2.20
2018-05-11T05:32:30.401Z,2.53
2018-05-11T05:34:57.917Z,2.25
2018-05-11T05:37:25.853Z,1.85
2018-05-11T05:39:53.578Z,1.62
2018-05-11T05:42:21.241Z,1.90
2018-05-11T05:44:48.918Z,2.03
2018-05-11T05:47:16.469Z,1.70
2018-05-11T05:49:44.006Z,2.15
2018-05-11T05:52:11.548Z,1.90
2018-05-11T05:54:39.069Z,1.60
2018-05-11T05:57:06.782Z,3.70
2018-05-11T05:59:34.305Z,2.03
2018-05-11T06:02:02.349Z,1.75
2018-05-11T06:04:29.913Z,1.85
2018-05-11T06:06:57.485Z,1.98
2018-05-11T06:09:25.078Z,1.83
2018-05-11T06:11:52.631Z,2.42
2018-05-11T06:14:20.140Z,1.70
2018-05-11T06:16:48.082Z,1.77
2018-05-11T06:19:15.595Z,1.95
2018-05-11T06:21:43.125Z,2.55
2018-05-11T06:24:10.656Z,2.10
2018-05-11T06:26:38.213Z,2.53
2018-05-11T06:29:05.733Z,2.08
2018-05-11T06:31:33.391Z,2.20
2018-05-11T06:34:00.901Z,2.53
2018-05-11T06:36:28.449Z,2.37
2018-05-11T06:38:56.153Z,3.22
2018-05-11T06:41:23.707Z,2.90
2018-05-11T06:43:51.215Z,2.83
2018-05-11T06:46:18.927Z,2.78
2018-05-11T06:48:46.439Z,3.42
2018-05-11T06:51:14.388Z,3.37
2018-05-11T06:53:42.108Z,3.30
2018-05-11T06:56:09.665Z,3.30
2018-05-11T06:58:37.188Z,2.97
2018-05-11T07:01:04.878Z,3.87
2018-05-11T07:03:32.395Z,3.03
2018-05-11T07:06:00.294Z,3.53
2018-05-11T07:08:28.056Z,3.47
2018-05-11T07:10:55.714Z,3.87
2018-05-11T07:13:23.260Z,3.62
2018-05-11T07:15:50.791Z,4.12
2018-05-11T07:18:18.350Z,3.55
2018-05-11T07:20:46.265Z,3.62
2018-05-11T07:23:13.792Z,4.07
2018-05-11T07:25:41.500Z,3.70
2018-05-11T07:28:09.029Z,3.75
2018-05-11T07:30:36.533Z,4.15
2018-05-11T07:33:04.111Z,4.62
2018-05-11T07:35:31.630Z,3.83
2018-05-11T07:37:59.268Z,4.22
2018-05-11T07:40:26.792Z,4.10
2018-05-11T07:42:54.333Z,3.75
2018-05-11T07:45:22.327Z,4.10
2018-05-11T07:47:49.881Z,3.55
2018-05-11T07:50:17.445Z,4.37
2018-05-11T07:52:45.109Z,3.62
2018-05-11T07:55:12.667Z,4.20
2018-05-11T07:57:40.415Z,4.12
2018-05-11T08:00:07.961Z,3.65
2018-05-11T08:02:35.516Z,4.45
2018-05-11T08:05:03.190Z,3.97
2018-05-11T08:07:31.125Z,3.53
2018-05-11T08:09:59.045Z,4.85
2018-05-11T08:12:26.587Z,3.97
2018-05-11T08:14:54.112Z,4.32
2018-05-11T08:17:21.696Z,4.28
2018-05-11T08:19:49.221Z,4.68
2018-05-11T08:22:16.761Z,4.18
2018-05-11T08:24:44.305Z,4.07
2018-05-11T08:27:11.924Z,3.28
2018-05-11T08:29:39.443Z,3.40
2018-05-11T08:32:06.977Z,3.90
2018-05-11T08:34:34.580Z,4.22
2018-05-11T08:37:02.242Z,3.75
2018-05-11T08:39:29.793Z,4.25
2018-05-11T08:41:57.298Z,4.37
2018-05-11T08:44:24.916Z,4.37
2018-05-11T08:46:52.434Z,5.15
2018-05-11T08:49:20.650Z,5.00
2018-05-11T08:51:48.210Z,5.28
2018-05-11T08:54:15.749Z,5.18
2018-05-11T08:56:43.253Z,4.90
2018-05-11T08:59:10.812Z,5.82
2018-05-11T09:01:38.315Z,3.30
2018-05-11T09:04:05.970Z,4.78
2018-05-11T09:06:33.469Z,4.00
2018-05-11T09:09:01.194Z,4.50
2018-05-11T09:11:28.704Z,4.25
2018-05-11T09:13:56.247Z,4.50
2018-05-11T09:16:23.751Z,4.30
2018-05-11T09:18:51.283Z,4.57
2018-05-11T09:21:18.873Z,4.32
2018-05-11T09:23:46.358Z,4.87
2018-05-11T09:26:13.889Z,4.72
2018-05-11T09:28:41.533Z,4.68
2018-05-11T09:31:09.034Z,4.47
2018-05-11T09:33:36.557Z,3.30
2018-05-11T09:36:04.076Z,3.42
2018-05-11T09:38:31.753Z,3.42
2018-05-11T09:40:59.264Z,4.32
2018-05-11T09:43:26.797Z,3.83
2018-05-11T09:45:54.319Z,3.22
2018-05-11T09:48:21.988Z,3.70
2018-05-11T09:50:49.643Z,3.67
2018-05-11T09:53:17.178Z,4.18
2018-05-11T09:55:44.773Z,3.50
2018-05-11T09:58:12.528Z,4.50
2018-05-11T10:00:40.060Z,3.47
2018-05-11T10:03:07.617Z,3.50
2018-05-11T10:05:35.213Z,3.33
2018-05-11T10:08:02.769Z,4.97
2018-05-11T10:10:30.300Z,3.33
2018-05-11T10:12:57.811Z,3.42
2018-05-11T10:15:25.417Z,5.20
2018-05-11T10:17:53.082Z,3.92
2018-05-11T10:20:20.609Z,3.67
2018-05-11T10:22:48.128Z,4.20
2018-05-11T10:25:15.672Z,3.60
2018-05-11T10:27:43.302Z,3.70
2018-05-11T10:30:10.965Z,3.50
2018-05-11T10:32:38.492Z,4.25
2018-05-11T10:35:06.101Z,3.83
2018-05-11T10:37:33.729Z,4.57
2018-05-11T10:40:01.293Z,3.90
2018-05-11T10:42:28.842Z,4.28
2018-05-11T10:44:56.372Z,3.42
2018-05-11T10:47:23.921Z,5.93
2018-05-11T10:49:51.492Z,4.53
2018-05-11T10:52:19.012Z,4.95
2018-05-11T10:54:46.544Z,4.93
2018-05-11T10:57:14.081Z,4.60
2018-05-11T10:59:41.649Z,4.50
2018-05-11T11:02:09.158Z,5.05
2018-05-11T11:04:37.090Z,4.32
2018-05-11T11:07:04.599Z,4.82
2018-05-11T11:09:32.161Z,4.85
2018-05-11T11:11:59.720Z,5.15
2018-05-11T11:14:27.256Z,5.93
2018-05-11T11:16:54.769Z,5.55
2018-05-11T11:19:22.310Z,6.12
2018-05-11T11:21:49.816Z,6.80
2018-05-11T11:24:17.756Z,6.85
2018-05-11T11:26:45.280Z,6.20
2018-05-11T11:29:12.924Z,6.47
2018-05-11T11:31:40.573Z,5.35
2018-05-11T11:34:08.069Z,6.28
2018-05-11T11:36:35.670Z,6.75
2018-05-11T11:39:03.204Z,6.80
2018-05-11T11:41:30.736Z,7.30
2018-05-11T11:43:58.241Z,5.80
2018-05-11T11:46:25.780Z,5.50
2018-05-11T11:48:53.692Z,4.68
2018-05-11T11:51:21.253Z,3.78
2018-05-11T11:53:48.765Z,3.78
2018-05-11T11:56:16.790Z,3.42
2018-05-11T11:58:44.239Z,3.72
2018-05-11T12:01:11.777Z,4.03
2018-05-11T12:03:39.328Z,4.75
2018-05-11T12:06:06.977Z,4.18
2018-05-11T12:08:34.508Z,3.05
2018-05-11T12:11:02.447Z,2.83
2018-05-11T12:13:29.944Z,3.40
2018-05-11T12:15:57.610Z,3.83
2018-05-11T12:18:25.286Z,3.37
2018-05-11T12:20:52.833Z,3.47
2018-05-11T12:23:20.388Z,3.78
2018-05-11T12:25:47.944Z,3.50
2018-05-11T12:28:15.441Z,3.60
2018-05-11T12:30:43.006Z,3.28
2018-05-11T12:33:10.626Z,3.05
2018-05-11T12:35:38.150Z,3.28
2018-05-11T12:38:05.678Z,3.40
2018-05-11T12:40:33.233Z,3.53
2018-05-11T12:43:00.749Z,2.90
2018-05-11T12:45:28.520Z,4.20
2018-05-11T12:47:57.021Z,4.12
2018-05-11T12:50:24.564Z,3.67
2018-05-11T12:52:52.113Z,3.25
2018-05-11T12:55:19.780Z,4.20
2018-05-11T12:57:47.707Z,5.05
2018-05-11T13:00:15.280Z,4.37
2018-05-11T13:02:42.812Z,4.07
2018-05-11T13:05:10.333Z,3.60
2018-05-11T13:07:37.868Z,3.87
2018-05-11T13:10:05.405Z,3.47
2018-05-11T13:12:32.958Z,3.67
2018-05-11T13:15:00.476Z,4.32
2018-05-11T13:17:28.001Z,4.43
2018-05-11T13:19:55.641Z,4.43
2018-05-11T13:22:23.213Z,3.67
2018-05-11T13:24:50.883Z,4.45
2018-05-11T13:27:18.440Z,4.97
2018-05-11T13:29:45.968Z,4.50
2018-05-11T13:32:13.595Z,4.45
2018-05-11T13:34:41.149Z,3.92
2018-05-11T13:37:08.717Z,4.20
2018-05-11T13:39:36.237Z,4.68
2018-05-11T13:42:04.252Z,5.35
2018-05-11T13:44:31.749Z,5.05
2018-05-11T13:46:59.309Z,5.00
2018-05-11T13:49:26.832Z,4.35
2018-05-11T13:51:54.365Z,4.12
2018-05-11T13:54:21.881Z,5.30
2018-05-11T13:56:49.425Z,4.85
2018-05-11T13:59:16.942Z,5.22
2018-05-11T14:01:44.464Z,5.40
2018-05-11T14:04:12.185Z,5.55
2018-05-11T14:06:39.720Z,4.47
2018-05-11T14:09:07.241Z,5.45
2018-05-11T14:11:34.788Z,6.12
2018-05-11T14:14:02.374Z,8.13
2018-05-11T14:16:30.073Z,7.85
2018-05-11T14:18:57.693Z,5.97
2018-05-11T14:21:25.236Z,6.20
2018-05-11T14:23:52.754Z,6.07
2018-05-11T14:26:20.299Z,5.53
2018-05-11T14:28:47.816Z,4.95
2018-05-11T14:31:15.356Z,6.32
2018-05-11T14:33:43.032Z,6.07
2018-05-11T14:36:10.573Z,6.05
2018-05-11T14:38:38.114Z,5.95
2018-05-11T14:41:05.629Z,5.70
2018-05-11T14:43:33.169Z,6.35
2018-05-11T14:46:00.714Z,7.93
2018-05-11T14:48:28.369Z,7.05
2018-05-11T14:50:55.866Z,7.37
2018-05-11T14:53:23.408Z,4.62
2018-05-11T14:55:50.921Z,6.55
2018-05-11T14:58:18.437Z,7.75
2018-05-11T15:00:45.976Z,7.47
2018-05-11T15:03:13.525Z,7.43
2018-05-11T15:05:41.021Z,5.20
2018-05-11T15:08:09.061Z,5.43
2018-05-11T15:10:36.587Z,5.97
2018-05-11T15:13:04.109Z,7.05
2018-05-11T15:15:31.717Z,7.15
2018-05-11T15:17:59.609Z,6.22
2018-05-11T15:20:27.129Z,6.00
2018-05-11T15:22:54.706Z,5.30
2018-05-11T15:25:22.212Z,6.30
2018-05-11T15:27:49.749Z,6.47
2018-05-11T15:30:17.754Z,5.70
2018-05-11T15:32:45.413Z,5.70
2018-05-11T15:35:12.933Z,5.12
2018-05-11T15:37:40.865Z,5.43
2018-05-11T15:40:08.405Z,6.37
2018-05-11T15:42:35.955Z,6.62
2018-05-11T15:45:03.484Z,5.65
2018-05-11T15:47:31.186Z,5.72
2018-05-11T15:49:58.709Z,5.53
2018-05-11T15:52:26.261Z,6.12
2018-05-11T15:54:53.792Z,5.93
2018-05-11T15:57:21.790Z,6.20
2018-05-11T15:59:49.315Z,4.68
2018-05-11T16:02:17.257Z,5.37
2018-05-11T16:04:44.978Z,5.90
2018-05-11T16:07:12.513Z,5.25
2018-05-11T16:09:40.029Z,5.45
2018-05-11T16:12:07.751Z,4.82
2018-05-11T16:14:35.261Z,5.28
2018-05-11T16:17:03.159Z,5.20
2018-05-11T16:19:30.922Z,5.35
2018-05-11T16:21:58.451Z,4.65
2018-05-11T16:24:26.003Z,5.32
2018-05-11T16:26:53.522Z,5.15
2018-05-11T16:29:21.062Z,5.87
2018-05-11T16:31:48.893Z,6.07
2018-05-11T16:34:16.445Z,6.07
2018-05-11T16:36:44.132Z,5.37
2018-05-11T16:39:11.667Z,5.82
2018-05-11T16:41:39.203Z,6.05
2018-05-11T16:44:06.753Z,5.15
2018-05-11T16:46:34.268Z,5.30
2018-05-11T16:49:01.803Z,5.28
2018-05-11T16:51:29.464Z,5.22
2018-05-11T16:53:57.029Z,4.70
2018-05-11T16:56:24.551Z,5.00
2018-05-11T16:58:52.089Z,4.75
2018-05-11T17:01:19.998Z,4.30
2018-05-11T17:03:47.557Z,4.97
2018-05-11T17:06:15.085Z,4.57
2018-05-11T17:08:42.675Z,4.12
2018-05-11T17:11:10.448Z,4.50
2018-05-11T17:13:38.004Z,4.28
2018-05-11T17:16:05.662Z,4.57
2018-05-11T17:18:33.205Z,4.22
2018-05-11T17:21:00.724Z,4.87
2018-05-11T17:23:28.260Z,4.10
2018-05-11T17:25:55.781Z,4.30
2018-05-11T17:28:23.733Z,4.10
2018-05-11T17:30:51.262Z,3.95
2018-05-11T17:33:19.046Z,4.90
2018-05-11T17:35:46.551Z,4.78
2018-05-11T17:38:14.159Z,4.82
2018-05-11T17:40:41.672Z,4.85
2018-05-11T17:43:09.622Z,5.35
2018-05-11T17:45:37.586Z,4.47
2018-05-11T17:48:05.116Z,4.68
2018-05-11T17:50:32.673Z,4.37
2018-05-11T17:53:00.181Z,4.95
2018-05-11T17:55:28.129Z,3.90
2018-05-11T17:57:55.646Z,4.68
2018-05-11T18:00:23.200Z,4.25
2018-05-11T18:02:50.733Z,4.72
2018-05-11T18:05:18.340Z,4.40
2018-05-11T18:07:45.860Z,4.22
2018-05-11T18:10:13.546Z,4.30
2018-05-11T18:12:41.082Z,4.70
2018-05-11T18:15:08.630Z,4.90
2018-05-11T18:17:36.296Z,4.78
2018-05-11T18:20:03.825Z,4.15
2018-05-11T18:22:31.343Z,4.50
2018-05-11T18:24:58.877Z,4.15
2018-05-11T18:27:26.541Z,4.05
2018-05-11T18:29:54.170Z,4.65
2018-05-11T18:32:21.836Z,5.72
2018-05-11T18:34:49.390Z,4.80
2018-05-11T18:37:16.888Z,4.80
2018-05-11T18:39:44.492Z,4.95
2018-05-11T18:42:12.469Z,5.72
2018-05-11T18:44:40.005Z,4.53
2018-05-11T18:47:07.581Z,5.55
2018-05-11T18:49:35.113Z,5.05
2018-05-11T18:52:02.635Z,6.10
2018-05-11T18:54:30.455Z,5.47
2018-05-11T18:56:58.012Z,5.70
2018-05-11T18:59:25.658Z,6.03
2018-05-11T19:01:53.354Z,5.00
2018-05-11T19:04:20.878Z,5.35
2018-05-11T19:06:48.442Z,5.22
2018-05-11T19:09:15.973Z,5.95
2018-05-11T19:11:43.559Z,6.12
2018-05-11T19:14:11.205Z,6.47
2018-05-11T19:16:38.859Z,6.03
2018-05-11T19:19:06.524Z,5.97
2018-05-11T19:21:34.209Z,5.60
2018-05-11T19:24:01.849Z,6.25
2018-05-11T19:26:29.709Z,7.25
2018-05-11T19:28:57.375Z,7.35
2018-05-11T19:31:24.963Z,7.10
2018-05-11T19:33:52.501Z,6.37
2018-05-11T19:36:20.048Z,6.93
2018-05-11T19:38:47.614Z,6.53
2018-05-11T19:41:15.138Z,6.97
2018-05-11T19:43:42.659Z,7.40
2018-05-11T19:46:10.197Z,6.10
2018-05-11T19:48:37.720Z,6.60
2018-05-11T19:51:05.273Z,7.60
2018-05-11T19:53:32.803Z,7.00
2018-05-11T19:56:00.424Z,6.18
2018-05-11T19:58:27.886Z,6.95
2018-05-11T20:00:55.437Z,7.12
2018-05-11T20:03:23.360Z,7.25
2018-05-11T20:05:50.900Z,7.95
2018-05-11T20:08:18.474Z,7.18
2018-05-11T20:10:46.101Z,6.40
2018-05-11T20:13:13.693Z,6.72
2018-05-11T20:15:41.232Z,6.60
2018-05-11T20:18:08.823Z,5.82
2018-05-11T20:20:36.353Z,6.20
2018-05-11T20:23:03.991Z,6.28
2018-05-11T20:25:31.533Z,6.50
2018-05-11T20:27:59.658Z,6.55
2018-05-11T20:30:27.208Z,6.45
2018-05-11T20:32:54.806Z,6.97
2018-05-11T20:35:22.750Z,6.30
2018-05-11T20:37:50.394Z,6.65
2018-05-11T20:40:17.956Z,6.45
2018-05-11T20:42:45.491Z,7.22
2018-05-11T20:45:13.084Z,6.80
2018-05-11T20:47:40.614Z,6.78
2018-05-11T20:50:08.191Z,5.80
2018-05-11T20:52:35.692Z,6.82
2018-05-11T20:55:03.226Z,6.82
2018-05-11T20:57:30.837Z,6.60
2018-05-11T20:59:58.349Z,6.30
2018-05-11T21:02:26.433Z,7.10
2018-05-11T21:04:53.891Z,8.18
2018-05-11T21:07:21.440Z,8.10
2018-05-11T21:09:48.940Z,6.72
2018-05-11T21:12:16.476Z,6.95
2018-05-11T21:14:44.038Z,7.47
2018-05-11T21:17:11.689Z,7.07
2018-05-11T21:19:39.361Z,7.00
2018-05-11T21:22:06.893Z,7.07
2018-05-11T21:24:34.445Z,6.62
2018-05-11T21:27:02.124Z,7.28
2018-05-11T21:29:29.628Z,6.20
2018-05-11T21:31:57.562Z,6.78
2018-05-11T21:34:25.085Z,6.43
2018-05-11T21:36:52.773Z,6.60
2018-05-11T21:39:20.274Z,6.40
2018-05-11T21:41:48.217Z,7.10
2018-05-11T21:44:15.741Z,6.15
2018-05-11T21:46:43.405Z,7.55
2018-05-11T21:49:11.061Z,6.50
2018-05-11T21:51:38.584Z,6.45
2018-05-11T21:54:06.113Z,6.75
2018-05-11T21:56:33.662Z,6.22
2018-05-11T21:59:01.170Z,7.45
2018-05-11T22:01:28.700Z,6.28
2018-05-11T22:03:56.385Z,6.82
2018-05-11T22:06:24.047Z,6.28
2018-05-11T22:08:51.549Z,6.22
2018-05-11T22:11:19.091Z,6.55
2018-05-11T22:13:46.601Z,6.70
2018-05-11T22:16:14.257Z,6.78
2018-05-11T22:18:41.823Z,7.35
2018-05-11T22:21:09.378Z,6.82
2018-05-11T22:23:36.942Z,6.85
2018-05-11T22:26:04.498Z,6.50
2018-05-11T22:28:32.048Z,6.45
2018-05-11T22:30:59.578Z,6.15
2018-05-11T22:33:27.277Z,6.78
2018-05-11T22:35:54.796Z,6.43
2018-05-11T22:38:22.741Z,6.57
2018-05-11T22:40:50.268Z,7.40
2018-05-11T22:43:17.919Z,6.50
2018-05-11T22:45:45.563Z,6.62
2018-05-11T22:48:13.151Z,6.78
2018-05-11T22:50:40.887Z,6.43
2018-05-11T22:53:08.434Z,6.37
2018-05-11T22:55:35.954Z,6.95
2018-05-11T22:58:03.491Z,6.28
2018-05-11T23:00:36.797Z,6.07
2018-05-11T23:03:05.125Z,5.82
2018-05-11T23:05:33.372Z,5.60
2018-05-11T23:08:01.048Z,6.00
2018-05-11T23:10:28.693Z,6.45
2018-05-11T23:12:56.350Z,5.32
2018-05-11T23:15:23.849Z,5.85
2018-05-11T23:17:51.472Z,6.10
2018-05-11T23:20:19.138Z,7.10
2018-05-11T23:22:46.682Z,6.25
2018-05-11T23:25:14.256Z,5.20
2018-05-11T23:27:41.833Z,6.20
2018-05-11T23:30:09.342Z,6.25
2018-05-11T23:32:37.004Z,6.10
2018-05-11T23:35:04.616Z,6.55
2018-05-11T23:37:32.537Z,6.00
2018-05-11T23:40:00.046Z,6.30
2018-05-11T23:42:27.978Z,6.20
2018-05-11T23:44:55.519Z,5.90
2018-05-11T23:47:23.180Z,6.60
2018-05-11T23:49:50.938Z,5.68
2018-05-11T23:52:18.354Z,5.90
2018-05-11T23:54:46.290Z,5.60
2018-05-11T23:57:13.811Z,5.85
2018-05-11T23:59:41.373Z,5.75
